Time;durP1;ratioP1;P1;durP2;ratioP2;P2;SDS_P1;SDS_P2;PMS_P1;PMS_P2;Temp;Humidity;BMP_temperature;BMP_pressure;BME280_temperature;BME280_humidity;BME280_pressure;Samples;Min_cycle;Max_cycle;Signal;HPM_P1;HPM_P2
2024/02/24 00:01:50;;;;;;;3.25;1.05;;;12.40;87.50;;;;;;5032197;28;20032;-76
2024/02/24 00:04:16;;;;;;;2.08;0.82;;;12.40;87.60;;;;;;5050346;28;20100;-77
2024/02/24 00:06:41;;;;;;;2.72;1.00;;;12.40;87.60;;;;;;5031557;28;20024;-77
2024/02/24 00:09:07;;;;;;;2.92;1.00;;;12.40;87.70;;;;;;5032464;28;20096;-77
2024/02/24 00:11:32;;;;;;;2.42;0.90;;;12.40;87.60;;;;;;5032240;28;20029;-77
2024/02/24 00:13:58;;;;;;;2.25;0.73;;;12.40;87.70;;;;;;5032355;28;20394;-77
2024/02/24 00:16:23;;;;;;;1.70;0.80;;;12.40;87.70;;;;;;5032720;28;20536;-77
2024/02/24 00:18:49;;;;;;;3.03;1.15;;;12.40;87.80;;;;;;5051169;28;20029;-77
2024/02/24 00:21:15;;;;;;;3.53;0.98;;;12.40;87.80;;;;;;5032949;28;20032;-77
2024/02/24 00:23:40;;;;;;;2.08;0.90;;;12.50;87.90;;;;;;5032714;28;20035;-77
2024/02/24 00:26:06;;;;;;;1.45;0.80;;;12.40;87.90;;;;;;5050918;28;20017;-77
2024/02/24 00:28:31;;;;;;;2.38;0.90;;;12.40;87.90;;;;;;5050537;28;20029;-78
2024/02/24 00:30:57;;;;;;;1.73;0.95;;;12.40;87.80;;;;;;5032747;28;20071;-77
2024/02/24 00:33:22;;;;;;;2.97;0.98;;;12.40;87.80;;;;;;5048900;28;20322;-76
2024/02/24 00:35:48;;;;;;;1.42;0.93;;;12.40;87.90;;;;;;5049834;28;20040;-77
2024/02/24 00:38:13;;;;;;;1.88;0.88;;;12.40;87.90;;;;;;5031059;28;20032;-78
2024/02/24 00:40:39;;;;;;;2.70;0.90;;;12.40;87.80;;;;;;5050357;28;20090;-77
2024/02/24 00:43:04;;;;;;;3.15;1.00;;;12.40;88.40;;;;;;5031549;28;20025;-78
2024/02/24 00:45:30;;;;;;;3.53;0.85;;;12.40;87.80;;;;;;5032658;28;20021;-78
2024/02/24 00:47:55;;;;;;;2.25;1.00;;;12.40;87.90;;;;;;5050639;28;20408;-77
2024/02/24 00:50:23;;;;;;;1.80;0.80;;;12.40;88.00;;;;;;5050717;28;20111;-77
2024/02/24 00:52:48;;;;;;;1.95;1.02;;;12.40;87.90;;;;;;5032395;28;20032;-77
2024/02/24 00:55:14;;;;;;;2.42;1.00;;;12.40;88.00;;;;;;5032909;28;20025;-77
2024/02/24 00:57:39;;;;;;;2.40;0.90;;;12.40;88.00;;;;;;5033155;28;20064;-78
2024/02/24 01:00:05;;;;;;;2.90;1.00;;;12.40;88.00;;;;;;5050144;28;20083;-77
2024/02/24 01:02:31;;;;;;;1.65;0.80;;;12.40;88.00;;;;;;5033039;28;20064;-77
2024/02/24 01:04:56;;;;;;;3.28;0.80;;;12.40;87.90;;;;;;5050135;28;20489;-77
2024/02/24 01:07:22;;;;;;;2.40;1.00;;;12.40;88.00;;;;;;5050014;28;20033;-77
2024/02/24 01:09:47;;;;;;;2.00;0.88;;;12.40;87.90;;;;;;5032032;28;20041;-77
2024/02/24 01:12:13;;;;;;;1.95;1.08;;;12.40;88.00;;;;;;5031912;28;20485;-77
2024/02/24 01:14:39;;;;;;;3.22;0.90;;;12.40;88.00;;;;;;5031794;28;20033;-77
2024/02/24 01:17:04;;;;;;;1.92;0.90;;;12.40;87.90;;;;;;5031642;28;20083;-77
2024/02/24 01:19:29;;;;;;;2.60;0.93;;;12.40;87.90;;;;;;5035348;28;20039;-77
2024/02/24 01:21:55;;;;;;;1.83;1.08;;;12.40;87.90;;;;;;5035037;28;20037;-77
2024/02/24 01:24:20;;;;;;;1.70;0.90;;;12.40;87.90;;;;;;5053338;28;20021;-77
2024/02/24 01:26:46;;;;;;;2.20;0.80;;;12.40;88.00;;;;;;5034821;28;20033;-77
2024/02/24 01:29:11;;;;;;;2.35;0.90;;;12.40;88.00;;;;;;5053455;28;20116;-77
2024/02/24 01:31:37;;;;;;;2.42;0.80;;;12.40;88.00;;;;;;5035269;28;20028;-78
2024/02/24 01:34:02;;;;;;;1.52;0.80;;;12.40;87.90;;;;;;5035074;28;20439;-77
2024/02/24 01:36:28;;;;;;;1.63;0.70;;;12.40;87.90;;;;;;5035005;28;20090;-77
2024/02/24 01:38:54;;;;;;;1.35;0.75;;;12.30;87.90;;;;;;5034854;28;20520;-76
2024/02/24 01:41:20;;;;;;;2.65;1.00;;;12.40;88.00;;;;;;5053251;28;20243;-77
2024/02/24 01:43:45;;;;;;;2.45;0.88;;;12.40;87.90;;;;;;5052961;28;20111;-77
2024/02/24 01:46:14;;;;;;;2.35;0.93;;;12.40;87.90;;;;;;5034922;28;20072;-77
2024/02/24 01:48:39;;;;;;;1.40;0.70;;;12.40;87.90;;;;;;5034772;28;20021;-77
2024/02/24 01:51:05;;;;;;;2.33;1.10;;;12.40;87.90;;;;;;5053222;28;20021;-77
2024/02/24 01:53:31;;;;;;;1.55;0.80;;;12.40;87.80;;;;;;5052593;28;20045;-77
2024/02/24 01:55:59;;;;;;;2.05;0.85;;;12.40;87.90;;;;;;5034603;28;20032;-77
2024/02/24 01:58:28;;;;;;;2.13;0.90;;;12.40;88.00;;;;;;5052537;28;20035;-77
2024/02/24 02:00:54;;;;;;;3.05;0.90;;;12.40;88.00;;;;;;5034567;28;20064;-77
2024/02/24 02:03:19;;;;;;;1.77;0.80;;;12.40;88.00;;;;;;5034373;28;20025;-77
2024/02/24 02:05:46;;;;;;;2.25;0.90;;;12.40;88.00;;;;;;5034402;28;20025;-77
2024/02/24 02:08:12;;;;;;;2.10;0.88;;;12.40;88.00;;;;;;5052277;28;20021;-77
2024/02/24 02:10:48;;;;;;;1.20;0.88;;;12.40;88.10;;;;;;5052464;28;20032;-76
2024/02/24 02:13:14;;;;;;;1.77;0.82;;;12.40;88.10;;;;;;5034256;28;20556;-77
2024/02/24 02:15:41;;;;;;;1.92;0.90;;;12.40;88.00;;;;;;5034276;28;20036;-77
2024/02/24 02:18:06;;;;;;;1.88;0.80;;;12.40;88.00;;;;;;5034203;28;20186;-77
2024/02/24 02:20:33;;;;;;;1.90;0.90;;;12.30;88.00;;;;;;5034451;28;20561;-77
2024/02/24 02:22:58;;;;;;;2.30;0.90;;;12.30;87.90;;;;;;5051942;28;20068;-77
2024/02/24 02:25:24;;;;;;;2.67;1.30;;;12.40;88.00;;;;;;5034252;28;20049;-77
2024/02/24 02:27:49;;;;;;;2.92;1.02;;;12.40;88.00;;;;;;5051693;28;20316;-77
2024/02/24 02:30:15;;;;;;;1.08;0.70;;;12.40;88.00;;;;;;5033542;28;20048;-77
2024/02/24 02:32:40;;;;;;;1.58;0.82;;;12.30;87.90;;;;;;5033840;28;20036;-77
2024/02/24 02:35:06;;;;;;;2.25;1.10;;;12.40;87.90;;;;;;5051924;28;20128;-77
2024/02/24 02:37:32;;;;;;;2.22;0.80;;;12.40;88.00;;;;;;5052112;28;20561;-77
2024/02/24 02:39:58;;;;;;;1.83;0.80;;;12.30;87.90;;;;;;5033903;28;20116;-77
2024/02/24 02:42:24;;;;;;;2.90;1.08;;;12.40;87.90;;;;;;5033473;28;20400;-77
2024/02/24 02:44:49;;;;;;;2.58;1.10;;;12.30;87.90;;;;;;5033805;28;20021;-77
2024/02/24 02:47:14;;;;;;;1.52;0.90;;;12.40;87.90;;;;;;5051684;28;20092;-77
2024/02/24 02:49:40;;;;;;;1.85;0.85;;;12.40;87.80;;;;;;5051737;28;20025;-77
2024/02/24 02:52:05;;;;;;;2.15;0.80;;;12.30;87.80;;;;;;5051522;28;20562;-77
2024/02/24 02:54:31;;;;;;;1.92;0.75;;;12.30;87.80;;;;;;5033669;28;20039;-77
2024/02/24 02:56:56;;;;;;;2.22;0.80;;;12.40;87.70;;;;;;5033443;28;20025;-77
2024/02/24 02:59:22;;;;;;;1.35;0.70;;;12.30;87.80;;;;;;5033648;28;20039;-77
2024/02/24 03:01:55;;;;;;;1.75;0.80;;;12.40;87.80;;;;;;5033288;28;20036;-76
2024/02/24 03:04:20;;;;;;;1.98;0.80;;;12.30;87.80;;;;;;5051323;28;20025;-77
2024/02/24 03:06:46;;;;;;;1.52;0.70;;;12.30;87.80;;;;;;5051355;28;20028;-77
2024/02/24 03:09:11;;;;;;;2.53;0.90;;;12.30;87.80;;;;;;5033767;28;20496;-77
2024/02/24 03:11:37;;;;;;;1.67;0.75;;;12.30;87.70;;;;;;5051625;28;20549;-77
2024/02/24 03:14:03;;;;;;;1.95;0.68;;;12.30;87.70;;;;;;5051118;28;20024;-77
2024/02/24 03:16:29;;;;;;;1.38;0.73;;;12.30;87.80;;;;;;5051003;28;20040;-76
2024/02/24 03:18:54;;;;;;;2.08;0.95;;;12.30;87.70;;;;;;5033048;28;20397;-77
2024/02/24 03:21:24;;;;;;;3.17;0.90;;;12.30;87.60;;;;;;5033302;28;20515;-77
2024/02/24 03:23:49;;;;;;;1.83;0.93;;;12.30;87.70;;;;;;5050691;28;20090;-77
2024/02/24 03:26:15;;;;;;;1.85;0.80;;;12.30;87.80;;;;;;5033068;28;20029;-77
2024/02/24 03:28:40;;;;;;;1.77;0.85;;;12.30;87.70;;;;;;5033062;28;20032;-77
2024/02/24 03:31:06;;;;;;;1.50;0.73;;;12.30;87.80;;;;;;5032890;28;20044;-77
2024/02/24 03:33:31;;;;;;;1.50;0.80;;;12.30;87.80;;;;;;5050666;28;20025;-77
2024/02/24 03:35:56;;;;;;;1.75;0.80;;;12.30;87.60;;;;;;5050693;28;20029;-77
2024/02/24 03:38:22;;;;;;;1.55;0.70;;;12.30;87.70;;;;;;5050630;28;20363;-76
2024/02/24 03:40:47;;;;;;;1.80;0.80;;;12.30;87.60;;;;;;5032798;28;20060;-77
2024/02/24 03:43:13;;;;;;;1.60;0.73;;;12.40;87.70;;;;;;5032623;28;20029;-77
2024/02/24 03:45:38;;;;;;;1.38;0.80;;;12.30;87.80;;;;;;5050659;28;20025;-77
2024/02/24 03:48:04;;;;;;;1.67;0.82;;;12.30;87.70;;;;;;5032716;28;20064;-77
2024/02/24 03:50:29;;;;;;;1.45;0.80;;;12.30;87.80;;;;;;5032609;28;20037;-78
2024/02/24 03:52:55;;;;;;;2.08;0.80;;;12.20;87.80;;;;;;5032114;28;20060;-77
2024/02/24 03:55:22;;;;;;;2.05;0.90;;;12.30;87.80;;;;;;5032420;28;20029;-76
2024/02/24 03:57:47;;;;;;;1.17;0.77;;;12.30;87.80;;;;;;5027203;28;20025;-79
2024/02/24 04:00:13;;;;;;;1.50;0.73;;;12.30;87.80;;;;;;5029722;28;20017;-78
2024/02/24 04:02:42;;;;;;;2.53;1.00;;;12.30;87.80;;;;;;5031933;28;20024;-79
2024/02/24 04:05:07;;;;;;;1.65;0.70;;;12.30;87.70;;;;;;5032426;28;20021;-79
2024/02/24 04:07:33;;;;;;;1.17;0.70;;;12.30;87.70;;;;;;5050473;28;20477;-79
2024/02/24 04:09:58;;;;;;;1.73;0.90;;;12.30;87.80;;;;;;5050189;28;20101;-79
2024/02/24 04:12:24;;;;;;;1.35;0.80;;;12.30;87.90;;;;;;5032169;28;20489;-79
2024/02/24 04:14:49;;;;;;;1.52;0.80;;;12.30;88.20;;;;;;5032293;28;20043;-79
2024/02/24 04:17:15;;;;;;;1.65;0.80;;;12.30;87.70;;;;;;5032213;28;20036;-78
2024/02/24 04:19:40;;;;;;;2.70;0.82;;;12.30;87.60;;;;;;5050522;28;20037;-78
2024/02/24 04:22:06;;;;;;;1.67;0.90;;;12.30;87.70;;;;;;5050544;28;20290;-79
2024/02/24 04:24:31;;;;;;;2.13;0.80;;;12.30;87.70;;;;;;5032784;28;20025;-78
2024/02/24 04:26:57;;;;;;;2.47;0.80;;;12.30;87.80;;;;;;5032699;28;20047;-79
2024/02/24 04:29:22;;;;;;;1.42;0.80;;;12.30;87.70;;;;;;5050913;28;20654;-79
2024/02/24 04:31:48;;;;;;;1.27;0.70;;;12.30;87.70;;;;;;5050482;28;20075;-77
2024/02/24 04:34:13;;;;;;;1.23;0.63;;;12.30;87.60;;;;;;5034209;28;20493;-79
2024/02/24 04:36:42;;;;;;;2.05;0.80;;;12.30;87.60;;;;;;5050613;28;20029;-78
2024/02/24 04:39:08;;;;;;;1.40;0.75;;;12.30;87.80;;;;;;5032327;28;20033;-79
2024/02/24 04:41:35;;;;;;;1.95;0.70;;;12.30;87.70;;;;;;5049881;28;20044;-78
2024/02/24 04:44:00;;;;;;;0.98;0.70;;;12.30;87.80;;;;;;5032315;28;20527;-78
2024/02/24 04:46:25;;;;;;;2.83;1.25;;;12.30;87.70;;;;;;5050099;28;20243;-78
2024/02/24 04:48:51;;;;;;;1.40;0.80;;;12.30;87.60;;;;;;5032155;28;20021;-77
2024/02/24 04:51:16;;;;;;;1.90;0.80;;;12.30;87.70;;;;;;5049747;28;20040;-77
2024/02/24 04:53:42;;;;;;;1.55;0.70;;;12.30;87.70;;;;;;5052568;28;20033;-77
2024/02/24 04:56:10;;;;;;;2.03;0.80;;;12.30;87.70;;;;;;5035612;28;20493;-77
2024/02/24 04:58:36;;;;;;;1.45;0.80;;;12.30;87.70;;;;;;5035680;28;20033;-76
2024/02/24 05:01:01;;;;;;;1.83;0.80;;;12.30;87.70;;;;;;5053506;28;20147;-76
2024/02/24 05:03:27;;;;;;;1.58;0.73;;;12.30;87.70;;;;;;5035540;28;20031;-77
2024/02/24 05:05:52;;;;;;;1.60;0.80;;;12.20;87.80;;;;;;5035699;28;20025;-77
2024/02/24 05:08:18;;;;;;;1.48;0.80;;;12.30;87.70;;;;;;5053393;28;20044;-79
2024/02/24 05:10:43;;;;;;;2.10;0.90;;;12.30;88.30;;;;;;5053580;28;20017;-78
2024/02/24 05:13:09;;;;;;;1.33;0.75;;;12.30;87.70;;;;;;5035241;28;20872;-76
2024/02/24 05:15:34;;;;;;;2.83;0.95;;;12.30;87.80;;;;;;5053447;28;20112;-77
2024/02/24 05:18:00;;;;;;;1.50;0.82;;;12.30;87.80;;;;;;5053267;28;20048;-77
2024/02/24 05:20:25;;;;;;;1.67;0.80;;;12.30;87.90;;;;;;5053228;28;20095;-79
2024/02/24 05:22:51;;;;;;;2.65;0.80;;;12.30;87.90;;;;;;5053343;28;20047;-78
2024/02/24 05:25:16;;;;;;;2.00;0.90;;;12.30;87.90;;;;;;5035503;28;20029;-78
2024/02/24 05:27:42;;;;;;;1.77;0.90;;;12.30;88.00;;;;;;5035301;28;20032;-78
2024/02/24 05:30:08;;;;;;;1.98;0.80;;;12.30;87.90;;;;;;5053032;28;20025;-76
2024/02/24 05:32:34;;;;;;;2.42;0.85;;;12.30;87.90;;;;;;5053135;28;20032;-79
2024/02/24 05:34:59;;;;;;;1.45;0.60;;;12.30;87.90;;;;;;5035047;28;20466;-78
2024/02/24 05:37:25;;;;;;;1.35;0.70;;;12.30;87.90;;;;;;5034906;28;20127;-76
2024/02/24 05:39:52;;;;;;;1.80;0.90;;;12.30;88.00;;;;;;5052811;28;20021;-79
2024/02/24 05:42:17;;;;;;;1.33;0.80;;;12.30;87.90;;;;;;5052728;28;20021;-79
2024/02/24 05:44:43;;;;;;;2.03;0.77;;;12.30;87.90;;;;;;5034994;28;20025;-78
2024/02/24 05:47:08;;;;;;;2.13;0.75;;;12.30;87.90;;;;;;5034781;28;20528;-78
2024/02/24 05:49:34;;;;;;;2.80;0.80;;;12.30;87.80;;;;;;5052798;28;20024;-79
2024/02/24 05:51:59;;;;;;;2.15;0.90;;;12.30;87.80;;;;;;5034512;28;20090;-79
2024/02/24 05:54:25;;;;;;;2.20;0.90;;;12.30;87.80;;;;;;5035078;28;20374;-79
2024/02/24 05:56:50;;;;;;;1.55;0.82;;;12.30;87.80;;;;;;5034662;28;20033;-79
2024/02/24 05:59:16;;;;;;;2.05;0.80;;;12.30;87.80;;;;;;5049293;28;20036;-79
2024/02/24 06:01:42;;;;;;;2.30;0.90;;;12.30;87.80;;;;;;5034234;28;20032;-78
2024/02/24 06:04:08;;;;;;;1.60;0.77;;;12.20;87.70;;;;;;5033418;28;20394;-79
2024/02/24 06:06:33;;;;;;;1.58;0.80;;;12.30;87.80;;;;;;5034343;28;20036;-78
2024/02/24 06:08:59;;;;;;;2.08;0.90;;;12.30;87.90;;;;;;5052893;28;20028;-78
2024/02/24 06:11:24;;;;;;;1.02;0.73;;;12.20;88.10;;;;;;5034585;28;20499;-78
2024/02/24 06:13:52;;;;;;;2.03;0.82;;;12.20;87.60;;;;;;5032498;28;20029;-79
2024/02/24 06:16:18;;;;;;;2.05;0.90;;;12.20;87.60;;;;;;5034299;28;20032;-78
2024/02/24 06:18:44;;;;;;;2.05;0.90;;;12.30;87.90;;;;;;5034061;28;20033;-78
2024/02/24 06:21:09;;;;;;;1.63;0.80;;;12.20;87.60;;;;;;5034357;28;20032;-78
2024/02/24 06:23:35;;;;;;;1.65;0.80;;;12.20;87.60;;;;;;5034227;28;20029;-78
2024/02/24 06:26:00;;;;;;;2.80;0.90;;;12.20;87.70;;;;;;5052171;28;20107;-78
2024/02/24 06:28:26;;;;;;;1.08;0.70;;;12.30;87.60;;;;;;5052292;28;20650;-79
2024/02/24 06:30:51;;;;;;;1.98;0.80;;;12.30;87.70;;;;;;5052412;28;20103;-78
2024/02/24 06:33:17;;;;;;;1.52;0.80;;;12.20;87.60;;;;;;5034686;28;20025;-78
2024/02/24 06:35:42;;;;;;;1.67;0.65;;;12.20;87.50;;;;;;5053163;28;20445;-78
2024/02/24 06:38:08;;;;;;;1.73;0.80;;;12.30;87.50;;;;;;5034418;28;20551;-80
2024/02/24 06:40:33;;;;;;;1.85;0.70;;;12.20;87.50;;;;;;5034032;28;20028;-80
2024/02/24 06:42:59;;;;;;;1.17;0.70;;;12.30;87.50;;;;;;5032724;28;20021;-79
2024/02/24 06:45:24;;;;;;;1.52;0.80;;;12.20;87.50;;;;;;5047614;28;20052;-80
2024/02/24 06:47:50;;;;;;;1.50;0.73;;;12.20;87.60;;;;;;5033038;28;20074;-80
2024/02/24 06:50:15;;;;;;;2.13;0.80;;;12.30;87.60;;;;;;5035864;28;20033;-80
2024/02/24 06:52:41;;;;;;;1.25;0.70;;;12.20;87.50;;;;;;5029844;28;20036;-80
2024/02/24 06:55:06;;;;;;;1.35;0.88;;;12.20;87.60;;;;;;5030527;28;20033;-78
2024/02/24 06:57:32;;;;;;;2.05;0.95;;;12.20;87.50;;;;;;5030585;28;20504;-78
2024/02/24 06:59:57;;;;;;;2.00;0.82;;;12.20;87.50;;;;;;5031097;28;20029;-80
2024/02/24 07:02:23;;;;;;;1.65;0.77;;;12.20;87.20;;;;;;5030246;28;20116;-79
2024/02/24 07:04:48;;;;;;;2.08;1.00;;;12.20;87.30;;;;;;5030810;28;20025;-77
2024/02/24 07:07:14;;;;;;;1.33;0.90;;;12.20;87.40;;;;;;5048773;28;20178;-80
2024/02/24 07:09:39;;;;;;;1.50;0.90;;;12.30;87.50;;;;;;5050283;28;20257;-80
2024/02/24 07:12:06;;;;;;;2.50;1.08;;;12.20;87.50;;;;;;5048005;28;20056;-80
2024/02/24 07:14:33;;;;;;;1.35;0.90;;;12.20;87.40;;;;;;5028882;28;20036;-78
2024/02/24 07:16:58;;;;;;;1.85;0.90;;;12.20;87.30;;;;;;5047284;28;20277;-78
2024/02/24 07:19:24;;;;;;;1.30;0.77;;;12.20;87.40;;;;;;5029431;28;20036;-79
2024/02/24 07:21:49;;;;;;;1.20;0.80;;;12.30;87.40;;;;;;5047307;28;20032;-83
2024/02/24 07:24:15;;;;;;;1.67;0.90;;;12.20;87.30;;;;;;5047590;28;20505;-79
2024/02/24 07:26:44;;;;;;;1.60;0.70;;;12.20;87.30;;;;;;5030284;28;20037;-79
2024/02/24 07:29:10;;;;;;;1.55;0.80;;;12.20;87.30;;;;;;5048001;28;20037;-78
2024/02/24 07:31:36;;;;;;;1.65;0.80;;;12.20;87.40;;;;;;5045163;28;20281;-79
2024/02/24 07:34:02;;;;;;;1.38;0.70;;;12.20;87.30;;;;;;5028762;28;20560;-79
2024/02/24 07:36:29;;;;;;;1.40;0.70;;;12.20;87.20;;;;;;5028614;28;20032;-78
2024/02/24 07:38:55;;;;;;;1.02;0.73;;;12.20;87.40;;;;;;5046857;28;20054;-79
2024/02/24 07:41:21;;;;;;;1.70;0.82;;;12.20;87.40;;;;;;5028846;28;20025;-78
2024/02/24 07:43:46;;;;;;;2.20;0.80;;;12.20;87.30;;;;;;5029822;28;20573;-79
2024/02/24 07:46:20;;;;;;;1.02;0.70;;;12.30;87.40;;;;;;5031787;28;20040;-78
2024/02/24 07:48:45;;;;;;;1.92;1.02;;;12.30;87.30;;;;;;5050383;28;20028;-79
2024/02/24 07:51:10;;;;;;;2.00;1.13;;;12.20;87.30;;;;;;5031692;28;20127;-78
2024/02/24 07:53:36;;;;;;;1.55;0.80;;;12.20;87.40;;;;;;5030877;28;20402;-78
2024/02/24 07:56:01;;;;;;;2.10;0.90;;;12.20;87.20;;;;;;5031008;28;20060;-78
2024/02/24 07:58:27;;;;;;;1.80;0.90;;;12.30;87.30;;;;;;5031463;28;20029;-78
2024/02/24 08:00:52;;;;;;;1.33;0.80;;;12.20;87.30;;;;;;5031360;28;20037;-79
2024/02/24 08:03:18;;;;;;;2.88;0.95;;;12.20;87.30;;;;;;5031008;28;20497;-78
2024/02/24 08:05:43;;;;;;;2.00;0.90;;;12.20;87.30;;;;;;5030824;28;20029;-78
2024/02/24 08:08:09;;;;;;;1.13;0.80;;;12.20;87.30;;;;;;5031677;28;20021;-79
2024/02/24 08:10:34;;;;;;;1.58;0.77;;;12.20;87.10;;;;;;5049367;28;20029;-79
2024/02/24 08:13:00;;;;;;;1.33;0.70;;;12.20;87.20;;;;;;5046036;28;20037;-78
2024/02/24 08:15:25;;;;;;;1.75;0.88;;;12.20;87.40;;;;;;5028123;28;20393;-78
2024/02/24 08:17:51;;;;;;;2.65;1.00;;;12.20;87.10;;;;;;5046504;28;20033;-78
2024/02/24 08:20:16;;;;;;;1.50;0.90;;;12.30;87.20;;;;;;5044889;28;20035;-78
2024/02/24 08:22:43;;;;;;;1.75;0.95;;;12.20;87.20;;;;;;5028070;28;20035;-79
2024/02/24 08:25:09;;;;;;;1.45;0.93;;;12.20;87.20;;;;;;5026944;28;20032;-79
2024/02/24 08:27:34;;;;;;;1.65;0.90;;;12.20;87.20;;;;;;5026907;28;20397;-80
2024/02/24 08:30:00;;;;;;;1.50;0.90;;;12.20;87.20;;;;;;5045388;28;20404;-79
2024/02/24 08:32:25;;;;;;;1.27;0.80;;;12.20;87.20;;;;;;5045214;28;20044;-78
2024/02/24 08:34:51;;;;;;;1.80;0.70;;;12.30;87.30;;;;;;5045132;28;20037;-78
2024/02/24 08:37:16;;;;;;;1.40;0.90;;;12.20;87.30;;;;;;5045705;28;20032;-78
2024/02/24 08:39:41;;;;;;;2.88;0.93;;;12.30;87.30;;;;;;5028577;28;20035;-79
2024/02/24 08:42:07;;;;;;;1.40;0.80;;;12.20;87.30;;;;;;5046255;28;20486;-79
2024/02/24 08:44:33;;;;;;;1.60;0.90;;;12.30;87.40;;;;;;5029166;28;20056;-79
2024/02/24 08:46:58;;;;;;;1.10;0.80;;;12.20;87.40;;;;;;5028882;28;20025;-79
2024/02/24 08:49:23;;;;;;;1.40;0.80;;;12.20;87.20;;;;;;5047579;28;20029;-81
2024/02/24 08:51:49;;;;;;;1.70;0.77;;;12.30;87.40;;;;;;5046925;28;20173;-79
2024/02/24 08:54:20;;;;;;;1.77;0.90;;;12.20;87.10;;;;;;5030025;28;20312;-79
2024/02/24 08:56:46;;;;;;;1.25;0.80;;;12.20;87.10;;;;;;5029375;28;20015;-80
2024/02/24 08:59:12;;;;;;;1.50;0.77;;;12.20;87.10;;;;;;5041109;28;20397;-78
2024/02/24 09:01:37;;;;;;;1.65;0.88;;;12.20;87.20;;;;;;5046113;28;20108;-80
2024/02/24 09:04:03;;;;;;;1.25;0.90;;;12.20;87.20;;;;;;5028035;28;20450;-79
2024/02/24 09:06:31;;;;;;;1.08;0.85;;;12.20;87.10;;;;;;5028204;28;20405;-79
2024/02/24 09:08:56;;;;;;;1.90;0.90;;;12.20;87.00;;;;;;5028322;28;20037;-80
2024/02/24 09:11:22;;;;;;;1.48;0.90;;;12.20;87.10;;;;;;5046736;28;20041;-79
2024/02/24 09:13:47;;;;;;;2.28;1.10;;;12.30;87.20;;;;;;5028498;28;20028;-78
2024/02/24 09:16:16;;;;;;;2.25;0.80;;;12.30;87.10;;;;;;5028422;28;20025;-82
2024/02/24 09:18:42;;;;;;;1.67;0.82;;;12.30;87.00;;;;;;5033078;28;20052;-79
2024/02/24 09:21:11;;;;;;;3.65;1.10;;;12.30;87.00;;;;;;5051378;28;20060;-80
2024/02/24 09:23:36;;;;;;;2.95;0.98;;;12.30;87.10;;;;;;5034874;28;20079;-79
2024/02/24 09:26:02;;;;;;;2.75;0.93;;;12.30;87.10;;;;;;5050885;28;20290;-80
2024/02/24 09:28:27;;;;;;;1.40;0.90;;;12.30;87.00;;;;;;5031623;28;20033;-76
2024/02/24 09:30:53;;;;;;;1.73;0.90;;;12.30;86.80;;;;;;5029043;28;20032;-77
2024/02/24 09:33:18;;;;;;;2.88;1.13;;;12.30;86.90;;;;;;5047004;28;20037;-77
2024/02/24 09:35:44;;;;;;;2.08;0.82;;;12.30;86.90;;;;;;5048479;28;20112;-79
2024/02/24 09:38:09;;;;;;;2.20;1.02;;;12.40;86.80;;;;;;5030570;28;20481;-80
2024/02/24 09:40:35;;;;;;;2.42;1.08;;;12.40;87.00;;;;;;5033356;28;20025;-77
2024/02/24 09:43:04;;;;;;;2.00;0.90;;;12.50;86.80;;;;;;5036694;28;20493;-78
2024/02/24 09:45:34;;;;;;;2.78;1.15;;;12.50;86.80;;;;;;5037275;28;20481;-78
2024/02/24 09:48:00;;;;;;;1.95;1.00;;;12.50;86.70;;;;;;5036756;28;20075;-80
2024/02/24 09:50:27;;;;;;;1.27;0.82;;;12.50;86.60;;;;;;5036567;28;20045;-80
2024/02/24 09:52:52;;;;;;;1.58;0.95;;;12.50;86.60;;;;;;5036517;28;20025;-80
2024/02/24 09:55:19;;;;;;;1.88;1.00;;;12.60;86.70;;;;;;5037035;28;20408;-79
2024/02/24 09:57:45;;;;;;;2.67;0.95;;;12.60;86.80;;;;;;5053880;28;20067;-79
2024/02/24 10:00:11;;;;;;;1.30;0.85;;;12.50;86.70;;;;;;5054805;28;20037;-80
2024/02/24 10:02:37;;;;;;;2.75;0.82;;;12.50;86.70;;;;;;5054419;28;20055;-79
2024/02/24 10:05:03;;;;;;;3.38;1.00;;;12.50;86.80;;;;;;5055254;28;20022;-80
2024/02/24 10:07:30;;;;;;;2.13;0.90;;;12.50;86.80;;;;;;5037287;28;20052;-78
2024/02/24 10:09:56;;;;;;;2.00;1.00;;;12.50;87.00;;;;;;5035785;28;20515;-78
2024/02/24 10:12:22;;;;;;;2.78;0.90;;;12.50;87.00;;;;;;5054025;28;20029;-81
2024/02/24 10:14:47;;;;;;;2.50;0.90;;;12.50;87.20;;;;;;5033742;28;20036;-79
2024/02/24 10:17:14;;;;;;;3.72;1.23;;;12.50;87.10;;;;;;5032798;28;20029;-79
2024/02/24 10:19:39;;;;;;;1.92;0.88;;;12.50;87.10;;;;;;5033132;28;20020;-79
2024/02/24 10:22:05;;;;;;;2.35;0.95;;;12.50;87.10;;;;;;5051950;28;20040;-79
2024/02/24 10:24:31;;;;;;;3.00;1.00;;;12.50;87.10;;;;;;5034350;28;20074;-79
2024/02/24 10:26:57;;;;;;;1.83;0.80;;;12.50;87.10;;;;;;5051982;28;20025;-79
2024/02/24 10:29:32;;;;;;;2.92;0.85;;;12.50;87.30;;;;;;5034087;28;20029;-79
2024/02/24 10:31:59;;;;;;;1.75;0.98;;;12.50;87.30;;;;;;5034133;28;20040;-79
2024/02/24 10:34:25;;;;;;;2.55;0.90;;;12.40;87.20;;;;;;5033844;28;20017;-79
2024/02/24 10:36:51;;;;;;;1.92;0.93;;;12.40;87.40;;;;;;5052030;28;20032;-79
2024/02/24 10:39:18;;;;;;;2.55;0.90;;;12.40;87.40;;;;;;5033969;28;20104;-79
2024/02/24 10:41:45;;;;;;;1.88;0.90;;;12.40;87.40;;;;;;5034059;28;20064;-79
2024/02/24 10:44:12;;;;;;;1.75;1.00;;;12.40;87.50;;;;;;5033911;28;20025;-79
2024/02/24 10:46:37;;;;;;;2.28;1.10;;;12.40;87.60;;;;;;5033818;28;20063;-79
2024/02/24 10:49:04;;;;;;;1.38;0.80;;;12.40;87.50;;;;;;5033681;28;20025;-78
2024/02/24 10:51:30;;;;;;;2.20;1.00;;;12.40;87.40;;;;;;5032891;28;20025;-78
2024/02/24 10:54:00;;;;;;;1.67;0.75;;;12.40;87.50;;;;;;5033733;28;20063;-79
2024/02/24 10:56:26;;;;;;;1.48;0.90;;;12.40;87.60;;;;;;5051489;28;20397;-79
2024/02/24 10:59:05;;;;;;;2.15;0.90;;;12.40;87.40;;;;;;5033661;28;20021;-79
2024/02/24 11:01:31;;;;;;;2.67;0.82;;;12.40;87.30;;;;;;5033635;28;20056;-79
2024/02/24 11:03:57;;;;;;;1.90;0.90;;;12.40;87.40;;;;;;5033328;28;20039;-78
2024/02/24 11:06:43;;;;;;;1.70;0.90;;;12.40;86.80;;;;;;5033139;28;20589;-78
2024/02/24 11:09:14;;;;;;;1.55;0.80;;;12.40;86.70;;;;;;5051121;28;20078;-79
2024/02/24 11:11:41;;;;;;;;;;;12.40;86.60;;;;;;5034089;28;20049;-78
2024/02/24 11:14:06;;;;;;;3.40;0.93;;;12.40;86.80;;;;;;5033734;28;19958;-78
2024/02/24 11:16:36;;;;;;;1.83;0.73;;;12.50;87.10;;;;;;5051086;28;20614;-77
2024/02/24 11:19:01;;;;;;;1.60;0.65;;;12.40;86.50;;;;;;5033296;28;20029;-78
2024/02/24 11:21:58;;;;;;;1.25;0.80;;;12.40;86.20;;;;;;5051075;28;20504;-79
2024/02/24 11:24:33;;;;;;;1.45;0.65;;;12.50;86.60;;;;;;5032975;28;20029;-78
2024/02/24 11:26:59;;;;;;;1.63;0.80;;;12.40;86.70;;;;;;5032681;28;20571;-79
2024/02/24 11:29:29;;;;;;;1.48;0.65;;;12.40;86.90;;;;;;5033001;28;20482;-78
2024/02/24 11:32:24;;;;;;;1.27;0.80;;;12.40;86.50;;;;;;5032922;28;20031;-78
2024/02/24 11:34:50;;;;;;;1.33;0.75;;;12.40;87.40;;;;;;5016173;28;20037;-78
2024/02/24 11:37:17;;;;;;;1.30;0.70;;;12.40;87.20;;;;;;5050525;28;20083;-78
2024/02/24 11:39:44;;;;;;;2.05;0.80;;;12.50;87.20;;;;;;5032901;28;20033;-79
2024/02/24 11:42:11;;;;;;;1.58;0.70;;;12.60;86.90;;;;;;5032475;28;20036;-78
2024/02/24 11:44:41;;;;;;;0.80;0.60;;;12.60;86.60;;;;;;5032904;28;20419;-78
2024/02/24 11:47:07;;;;;;;1.48;0.60;;;12.50;86.40;;;;;;5033202;28;20106;-78
2024/02/24 11:49:32;;;;;;;0.63;0.60;;;12.70;86.50;;;;;;5032640;28;20072;-78
2024/02/24 11:51:58;;;;;;;2.00;0.70;;;12.70;86.50;;;;;;5050397;28;20044;-78
2024/02/24 11:54:24;;;;;;;1.55;0.70;;;12.60;86.60;;;;;;5050524;28;20301;-78
2024/02/24 11:56:49;;;;;;;0.73;0.63;;;12.60;86.80;;;;;;5032608;28;20025;-79
2024/02/24 11:59:15;;;;;;;1.00;0.63;;;12.60;87.00;;;;;;5032568;28;20065;-78
2024/02/24 12:01:41;;;;;;;1.30;0.60;;;12.60;87.10;;;;;;5032010;28;20489;-78
2024/02/24 12:04:06;;;;;;;0.95;0.63;;;12.50;87.20;;;;;;5031949;28;20036;-78
2024/02/24 12:06:32;;;;;;;1.33;0.80;;;12.50;87.30;;;;;;5050375;28;20028;-78
2024/02/24 12:09:00;;;;;;;0.65;0.60;;;12.50;87.30;;;;;;5032325;28;20072;-78
2024/02/24 12:11:26;;;;;;;1.92;0.80;;;12.50;87.40;;;;;;5032231;28;20021;-78
2024/02/24 12:13:52;;;;;;;1.30;0.70;;;12.50;87.50;;;;;;5032116;28;20029;-78
2024/02/24 12:16:18;;;;;;;0.98;0.60;;;12.50;87.40;;;;;;5050014;28;20032;-78
2024/02/24 12:18:45;;;;;;;0.60;0.60;;;12.50;87.30;;;;;;5050120;28;20040;-78
2024/02/24 12:21:11;;;;;;;1.40;0.80;;;12.50;87.40;;;;;;5032178;28;20123;-78
2024/02/24 12:23:38;;;;;;;0.80;0.60;;;12.60;87.30;;;;;;5032002;28;20025;-77
2024/02/24 12:26:30;;;;;;;0.95;0.68;;;12.70;87.00;;;;;;5032215;28;20021;-78
2024/02/24 12:28:55;;;;;;;1.42;0.55;;;12.70;86.80;;;;;;5028233;28;20041;-78
2024/02/24 12:31:21;;;;;;;1.85;0.80;;;12.70;86.90;;;;;;5050175;28;20040;-79
2024/02/24 12:33:47;;;;;;;1.35;0.60;;;12.60;87.00;;;;;;5049743;28;20033;-78
2024/02/24 12:36:14;;;;;;;0.93;0.60;;;12.60;87.10;;;;;;5032020;28;20124;-78
2024/02/24 12:38:40;;;;;;;1.25;0.73;;;12.60;87.20;;;;;;5050304;28;20028;-78
2024/02/24 12:41:07;;;;;;;0.88;0.68;;;12.60;87.30;;;;;;5032063;28;20025;-79
2024/02/24 12:43:34;;;;;;;0.95;0.60;;;12.60;87.20;;;;;;5031496;28;20401;-78